FR-0298 weather

Morzine Avoriaz Airport
Avoriaz , Rhône Alpes, France

Public forecast

Using degrees Celsius for public forecast. Weather courtesy of forecast.io.

METAR (pilot weather report)

Closest report is Sion Airport, 23.5 nm (43.5 km) E. Retrieved 2019/07/23 04:20 UTC (0 seconds ago):

LSGS 230420Z AUTO 00000KT CAVOK 20/14 Q1023

TAF (pilot weather forecast)

Closest forecast is Geneva Cointrin International Airport, 27.3 nm (50.6 km) W. Retrieved 2019/07/23 03:36 UTC (36 minutes ago):

TAF LSGG 230225Z 2303/2409 VRB03KT CAVOK TX34/2315Z TN18/2304Z TN20/2404Z